createdAt,value
2018-09-19T00:01:47.616Z,19.30
2018-09-19T00:04:15.801Z,19.20
2018-09-19T00:06:43.995Z,19.20
2018-09-19T00:09:12.711Z,19.20
2018-09-19T00:11:41.291Z,19.20
2018-09-19T00:14:10.492Z,19.10
2018-09-19T00:16:38.717Z,19.20
2018-09-19T00:21:34.899Z,19.10
2018-09-19T00:24:03.091Z,19.10
2018-09-19T00:26:31.293Z,19.20
2018-09-19T00:28:59.446Z,19.20
2018-09-19T00:31:27.667Z,19.10
2018-09-19T00:33:55.915Z,18.80
2018-09-19T00:36:24.506Z,18.70
2018-09-19T00:38:52.916Z,18.60
2018-09-19T00:41:21.185Z,18.40
2018-09-19T00:43:49.376Z,18.40
2018-09-19T00:46:17.565Z,18.40
2018-09-19T00:48:45.774Z,18.30
2018-09-19T00:51:13.996Z,18.30
2018-09-19T00:53:42.180Z,18.30
2018-09-19T00:56:10.399Z,18.40
2018-09-19T00:58:38.664Z,18.40
2018-09-19T01:01:06.937Z,18.60
2018-09-19T01:03:35.133Z,18.50
2018-09-19T01:06:03.346Z,18.60
2018-09-19T01:08:31.534Z,18.70
2018-09-19T01:10:59.808Z,18.70
2018-09-19T01:13:28.007Z,18.80
2018-09-19T01:15:56.198Z,18.90
2018-09-19T01:18:24.370Z,19.00
2018-09-19T01:20:52.559Z,19.00
2018-09-19T01:23:20.778Z,19.00
2018-09-19T01:25:48.999Z,19.10
2018-09-19T01:28:17.172Z,19.00
2018-09-19T01:30:45.367Z,19.10
2018-09-19T01:33:13.575Z,19.00
2018-09-19T01:35:41.777Z,19.00
2018-09-19T01:38:09.977Z,19.00
2018-09-19T01:40:38.161Z,19.10
2018-09-19T01:43:06.360Z,19.00
2018-09-19T01:45:34.546Z,19.10
2018-09-19T01:48:02.725Z,19.00
2018-09-19T01:50:30.948Z,19.00
2018-09-19T01:52:59.127Z,18.90
2018-09-19T01:55:27.329Z,18.90
2018-09-19T01:57:55.526Z,18.90
2018-09-19T02:00:23.719Z,18.90
2018-09-19T02:02:51.972Z,18.90
2018-09-19T02:05:20.217Z,18.90
2018-09-19T02:07:48.400Z,18.80
2018-09-19T02:10:16.579Z,18.80
2018-09-19T02:12:44.822Z,18.90
2018-09-19T02:15:13.004Z,18.80
2018-09-19T02:17:41.235Z,18.80
2018-09-19T02:20:09.435Z,18.80
2018-09-19T02:22:37.627Z,18.80
2018-09-19T02:25:05.812Z,18.90
2018-09-19T02:27:34.028Z,18.80
2018-09-19T02:30:02.236Z,18.70
2018-09-19T02:32:30.504Z,18.60
2018-09-19T02:34:58.647Z,18.60
2018-09-19T02:37:26.917Z,18.60
2018-09-19T02:39:55.119Z,18.50
2018-09-19T02:42:23.351Z,18.50
2018-09-19T02:44:51.554Z,18.40
2018-09-19T02:47:19.737Z,18.40
2018-09-19T02:49:48.009Z,18.30
2018-09-19T02:52:16.176Z,18.30
2018-09-19T02:54:44.391Z,18.20
2018-09-19T02:57:12.645Z,18.20
2018-09-19T02:59:40.838Z,18.10
2018-09-19T03:02:09.893Z,18.10
2018-09-19T03:04:38.090Z,18.10
2018-09-19T03:07:06.278Z,18.00
2018-09-19T03:09:34.482Z,18.00
2018-09-19T03:12:02.708Z,18.00
2018-09-19T03:14:30.898Z,17.90
2018-09-19T03:16:59.168Z,17.90
2018-09-19T03:19:27.309Z,17.90
2018-09-19T03:21:55.541Z,17.90
2018-09-19T03:24:23.726Z,17.80
2018-09-19T03:26:51.984Z,17.80
2018-09-19T03:29:20.187Z,17.80
2018-09-19T03:31:48.444Z,17.80
2018-09-19T03:34:16.623Z,17.70
2018-09-19T03:36:44.887Z,17.70
2018-09-19T03:39:13.082Z,17.70
2018-09-19T03:41:41.384Z,17.70
2018-09-19T03:44:09.627Z,17.70
2018-09-19T03:46:38.673Z,17.70
2018-09-19T03:49:07.272Z,17.70
2018-09-19T03:51:35.632Z,17.60
2018-09-19T03:54:03.827Z,17.60
2018-09-19T03:56:32.019Z,17.60
2018-09-19T03:59:00.253Z,17.60
2018-09-19T04:01:28.462Z,17.60
2018-09-19T04:03:57.602Z,17.60
2018-09-19T04:06:25.778Z,17.60
2018-09-19T04:08:54.099Z,17.60
2018-09-19T04:11:22.289Z,17.60
2018-09-19T04:13:50.519Z,17.60
2018-09-19T04:16:18.708Z,17.60
2018-09-19T04:18:46.893Z,17.60
2018-09-19T04:21:15.100Z,17.60
2018-09-19T04:23:43.561Z,17.60
2018-09-19T04:26:11.820Z,17.60
2018-09-19T04:28:40.097Z,17.50
2018-09-19T04:31:08.712Z,17.60
2018-09-19T04:33:36.937Z,17.60
2018-09-19T04:36:05.143Z,17.70
2018-09-19T04:38:33.341Z,17.70
2018-09-19T04:41:01.530Z,17.70
2018-09-19T04:43:29.726Z,17.70
2018-09-19T04:45:57.912Z,17.70
2018-09-19T04:48:26.139Z,17.70
2018-09-19T04:50:54.324Z,17.60
2018-09-19T04:53:22.544Z,17.60
2018-09-19T04:55:50.789Z,17.50
2018-09-19T04:58:18.979Z,17.60
2018-09-19T05:00:47.468Z,17.60
2018-09-19T05:03:15.744Z,17.50
2018-09-19T05:05:43.995Z,17.50
2018-09-19T05:08:12.177Z,17.50
2018-09-19T05:10:40.469Z,17.50
2018-09-19T05:13:08.662Z,17.50
2018-09-19T05:15:36.916Z,17.40
2018-09-19T05:18:05.710Z,17.40
2018-09-19T05:20:34.066Z,17.50
2018-09-19T05:23:02.270Z,17.50
2018-09-19T05:25:30.484Z,17.50
2018-09-19T05:27:58.718Z,17.50
2018-09-19T05:30:26.958Z,17.50
2018-09-19T05:32:55.169Z,17.40
2018-09-19T05:35:23.442Z,17.50
2018-09-19T05:37:51.657Z,17.50
2018-09-19T05:40:19.869Z,17.40
2018-09-19T05:42:48.135Z,17.40
2018-09-19T05:45:16.395Z,17.40
2018-09-19T05:47:44.610Z,17.40
2018-09-19T05:50:12.928Z,17.50
2018-09-19T05:52:41.150Z,17.50
2018-09-19T05:55:09.386Z,17.50
2018-09-19T05:57:37.640Z,17.50
2018-09-19T06:00:05.855Z,17.50
2018-09-19T06:02:34.127Z,17.60
2018-09-19T06:05:02.396Z,17.60
2018-09-19T06:07:30.536Z,17.60
2018-09-19T06:09:58.759Z,17.70
2018-09-19T06:12:27.038Z,17.70
2018-09-19T06:14:55.321Z,17.80
2018-09-19T06:17:23.746Z,17.90
2018-09-19T06:19:53.065Z,17.90
2018-09-19T06:22:21.274Z,17.90
2018-09-19T06:24:49.528Z,17.90
2018-09-19T06:27:18.126Z,18.00
2018-09-19T06:29:46.433Z,18.10
2018-09-19T06:32:14.645Z,18.20
2018-09-19T06:34:42.915Z,18.20
2018-09-19T06:37:11.429Z,18.40
2018-09-19T06:39:39.605Z,18.50
2018-09-19T06:42:08.811Z,18.60
2018-09-19T06:44:37.135Z,18.80
2018-09-19T06:47:05.510Z,18.90
2018-09-19T06:49:33.737Z,19.10
2018-09-19T06:52:02.085Z,19.40
2018-09-19T06:54:31.622Z,19.80
2018-09-19T06:56:59.848Z,19.90
2018-09-19T06:59:28.000Z,20.00
2018-09-19T07:01:56.144Z,20.20
2018-09-19T07:04:24.379Z,20.50
2018-09-19T07:06:52.721Z,20.80
2018-09-19T07:09:20.878Z,21.10
2018-09-19T07:11:49.032Z,21.10
2018-09-19T07:14:17.540Z,21.40
2018-09-19T07:16:45.792Z,21.60
2018-09-19T07:19:14.167Z,21.80
2018-09-19T07:21:42.378Z,22.20
2018-09-19T07:24:10.720Z,22.60
2018-09-19T07:26:38.955Z,23.00
2018-09-19T07:29:07.172Z,23.20
2018-09-19T07:31:35.388Z,23.50
2018-09-19T07:34:03.665Z,23.60
2018-09-19T07:36:31.880Z,23.70
2018-09-19T07:39:00.352Z,23.70
2018-09-19T07:43:56.596Z,24.10
2018-09-19T07:46:24.872Z,25.10
2018-09-19T07:48:53.769Z,27.50
2018-09-19T07:51:22.049Z,30.20
2018-09-19T07:56:18.253Z,34.00
2018-09-19T07:58:46.499Z,34.20
2018-09-19T08:01:14.833Z,36.00
2018-09-19T08:03:42.968Z,34.60
2018-09-19T08:06:11.218Z,36.00
2018-09-19T08:08:39.421Z,38.30
2018-09-19T08:11:08.030Z,38.00
2018-09-19T08:13:36.406Z,37.70
2018-09-19T08:16:04.629Z,38.50
2018-09-19T08:18:32.868Z,38.60
2018-09-19T08:21:01.058Z,36.70
2018-09-19T08:23:29.275Z,36.20
2018-09-19T08:25:57.740Z,37.40
2018-09-19T08:28:25.988Z,36.00
2018-09-19T08:30:54.870Z,35.20
2018-09-19T08:33:23.120Z,33.40
2018-09-19T08:35:51.335Z,31.90
2018-09-19T08:38:19.540Z,30.50
2018-09-19T08:40:47.791Z,29.90
2018-09-19T08:43:15.985Z,29.30
2018-09-19T08:45:44.512Z,29.50
2018-09-19T08:48:12.794Z,29.60
2018-09-19T08:50:41.034Z,29.60
2018-09-19T08:53:09.190Z,30.00
2018-09-19T08:55:37.463Z,30.00
2018-09-19T08:58:05.767Z,30.10
2018-09-19T09:00:34.305Z,30.30
2018-09-19T09:03:02.550Z,30.40
2018-09-19T09:05:30.733Z,31.80
2018-09-19T09:07:58.981Z,34.10
2018-09-19T09:10:27.256Z,36.10
2018-09-19T09:17:52.377Z,42.10
2018-09-19T09:20:20.670Z,43.90
2018-09-19T09:22:48.939Z,44.20
2018-09-19T09:25:17.136Z,44.00
2018-09-19T09:27:45.690Z,44.90
2018-09-19T09:30:14.121Z,45.30
2018-09-19T09:32:42.354Z,47.00
2018-09-19T09:35:10.600Z,46.60
2018-09-19T09:37:38.846Z,47.40
2018-09-19T09:40:07.066Z,47.90
2018-09-19T09:42:35.270Z,47.80
2018-09-19T09:45:03.498Z,46.90
2018-09-19T09:47:31.976Z,45.20
2018-09-19T09:50:00.216Z,45.80
2018-09-19T09:52:28.471Z,46.60
2018-09-19T09:54:56.727Z,46.60
2018-09-19T09:57:24.963Z,46.60
2018-09-19T09:59:53.155Z,47.50
2018-09-19T10:02:21.330Z,47.40
2018-09-19T10:04:49.567Z,47.40
2018-09-19T10:07:17.761Z,47.10
2018-09-19T10:09:45.991Z,46.20
2018-09-19T10:12:14.254Z,46.00
2018-09-19T10:14:42.451Z,46.60
2018-09-19T10:17:10.677Z,46.70
2018-09-19T10:19:38.900Z,47.10
2018-09-19T10:22:07.105Z,46.00
2018-09-19T10:24:41.905Z,43.50
2018-09-19T10:27:10.153Z,41.40
2018-09-19T10:29:38.423Z,40.80
2018-09-19T10:32:06.597Z,39.70
2018-09-19T10:34:35.068Z,40.00
2018-09-19T10:37:03.258Z,40.30
2018-09-19T10:39:31.453Z,39.20
2018-09-19T10:42:00.230Z,38.10
2018-09-19T10:44:28.426Z,37.60
2018-09-19T10:46:56.669Z,37.30
2018-09-19T10:49:24.933Z,36.80
2018-09-19T10:51:53.064Z,36.20
2018-09-19T10:54:21.283Z,36.00
2018-09-19T10:56:49.521Z,35.20
2018-09-19T10:59:17.705Z,34.40
2018-09-19T11:01:45.903Z,34.40
2018-09-19T11:04:14.109Z,34.50
2018-09-19T11:06:42.337Z,34.60
2018-09-19T11:09:11.444Z,34.10
2018-09-19T11:11:39.645Z,33.10
2018-09-19T11:14:07.852Z,32.40
2018-09-19T11:16:36.095Z,31.80
2018-09-19T11:19:04.289Z,31.70
2018-09-19T11:21:32.501Z,31.90
2018-09-19T11:24:00.720Z,31.90
2018-09-19T11:26:29.252Z,31.90
2018-09-19T11:28:57.447Z,32.60
2018-09-19T11:31:25.623Z,33.00
2018-09-19T11:33:53.830Z,32.90
2018-09-19T11:36:22.066Z,32.80
2018-09-19T11:38:50.288Z,32.80
2018-09-19T11:41:18.501Z,33.00
2018-09-19T11:43:46.720Z,33.40
2018-09-19T11:46:14.930Z,33.50
2018-09-19T11:48:43.188Z,33.40
2018-09-19T11:51:11.472Z,33.10
2018-09-19T11:53:39.701Z,33.00
2018-09-19T11:56:07.965Z,32.60
2018-09-19T11:58:36.179Z,32.40
2018-09-19T12:01:04.453Z,32.00
2018-09-19T12:03:32.705Z,31.80
2018-09-19T12:06:00.905Z,31.70
2018-09-19T12:08:29.116Z,31.40
2018-09-19T12:10:57.382Z,31.30
2018-09-19T12:13:25.571Z,31.40
2018-09-19T12:15:53.788Z,32.00
2018-09-19T12:18:22.001Z,31.80
2018-09-19T12:20:50.200Z,31.80
2018-09-19T12:23:18.420Z,32.00
2018-09-19T12:25:46.637Z,32.40
2018-09-19T12:28:14.839Z,33.00
2018-09-19T12:30:43.025Z,33.50
2018-09-19T12:33:11.304Z,33.80
2018-09-19T12:35:40.069Z,33.90
2018-09-19T12:38:08.382Z,34.20
2018-09-19T12:40:36.625Z,34.20
2018-09-19T12:43:05.342Z,33.50
2018-09-19T12:45:33.553Z,33.10
2018-09-19T12:48:01.857Z,32.90
2018-09-19T12:50:30.117Z,32.70
2018-09-19T12:52:58.357Z,32.60
2018-09-19T12:55:26.599Z,32.40
2018-09-19T12:57:54.852Z,32.50
2018-09-19T13:00:23.061Z,32.60
2018-09-19T13:02:51.265Z,32.60
2018-09-19T13:05:19.468Z,32.40
2018-09-19T13:07:47.698Z,32.50
2018-09-19T13:10:15.889Z,32.70
2018-09-19T13:12:45.003Z,32.90
2018-09-19T13:15:13.207Z,33.10
2018-09-19T13:17:41.422Z,32.90
2018-09-19T13:20:09.813Z,32.80
2018-09-19T13:22:38.122Z,32.60
2018-09-19T13:25:06.636Z,32.60
2018-09-19T13:27:35.165Z,32.70
2018-09-19T13:30:03.487Z,32.80
2018-09-19T13:32:31.721Z,32.50
2018-09-19T13:34:59.998Z,32.30
2018-09-19T13:37:28.263Z,32.00
2018-09-19T13:39:56.582Z,31.70
2018-09-19T13:42:24.842Z,31.60
2018-09-19T13:44:53.117Z,31.60
2018-09-19T13:47:21.384Z,31.80
2018-09-19T13:49:53.650Z,32.10
2018-09-19T13:52:21.909Z,32.30
2018-09-19T13:54:50.138Z,32.50
2018-09-19T13:57:18.425Z,32.50
2018-09-19T13:59:46.800Z,32.50
2018-09-19T14:02:15.742Z,32.00
2018-09-19T14:04:44.101Z,32.00
2018-09-19T14:07:12.403Z,31.90
2018-09-19T14:09:42.053Z,31.80
2018-09-19T14:12:10.466Z,31.70
2018-09-19T14:14:38.689Z,31.80
2018-09-19T14:17:07.361Z,32.00
2018-09-19T14:19:35.671Z,32.10
2018-09-19T14:22:03.966Z,32.30
2018-09-19T14:24:32.271Z,32.30
2018-09-19T14:27:00.569Z,32.30
2018-09-19T14:29:29.202Z,32.20
2018-09-19T14:31:57.447Z,32.10
2018-09-19T14:34:25.713Z,32.10
2018-09-19T14:36:53.968Z,32.10
2018-09-19T14:39:22.268Z,32.00
2018-09-19T14:41:50.750Z,31.80
2018-09-19T14:44:19.646Z,31.60
2018-09-19T14:46:48.814Z,31.40
2018-09-19T14:49:17.061Z,31.40
2018-09-19T14:51:45.353Z,31.40
2018-09-19T14:54:13.616Z,31.50
2018-09-19T14:56:41.825Z,31.30
2018-09-19T14:59:10.892Z,31.30
2018-09-19T15:01:39.116Z,31.40
2018-09-19T15:04:07.324Z,31.50
2018-09-19T15:06:35.599Z,31.50
2018-09-19T15:09:05.270Z,31.40
2018-09-19T15:11:33.494Z,31.40
2018-09-19T15:14:01.704Z,31.30
2018-09-19T15:16:29.919Z,31.30
2018-09-19T15:18:58.959Z,31.20
2018-09-19T15:21:27.196Z,31.00
2018-09-19T15:23:55.403Z,30.80
2018-09-19T15:26:24.102Z,30.80
2018-09-19T15:28:52.372Z,30.70
2018-09-19T15:31:20.676Z,30.50
2018-09-19T15:33:48.953Z,30.40
2018-09-19T15:36:17.233Z,30.30
2018-09-19T15:38:45.511Z,30.20
2018-09-19T15:41:13.737Z,30.20
2018-09-19T15:43:41.983Z,30.00
2018-09-19T15:46:10.245Z,29.80
2018-09-19T15:48:38.462Z,29.80
2018-09-19T15:51:07.820Z,29.80
2018-09-19T15:53:36.086Z,29.80
2018-09-19T15:56:04.405Z,29.80
2018-09-19T15:58:32.981Z,29.90
2018-09-19T16:01:01.200Z,29.90
2018-09-19T16:03:29.464Z,29.90
2018-09-19T16:05:57.766Z,29.80
2018-09-19T16:08:26.592Z,29.80
2018-09-19T16:10:55.114Z,29.70
2018-09-19T16:13:23.343Z,29.60
2018-09-19T16:15:51.541Z,29.50
2018-09-19T16:18:19.802Z,29.30
2018-09-19T16:20:48.071Z,29.30
2018-09-19T16:23:16.232Z,29.10
2018-09-19T16:25:44.445Z,29.00
2018-09-19T16:28:12.698Z,28.90
2018-09-19T16:30:40.918Z,28.70
2018-09-19T16:33:09.203Z,28.60
2018-09-19T16:35:37.438Z,28.50
2018-09-19T16:38:06.072Z,28.40
2018-09-19T16:40:34.344Z,28.40
2018-09-19T16:43:02.517Z,28.30
2018-09-19T16:45:30.808Z,28.30
2018-09-19T16:47:59.033Z,28.20
2018-09-19T16:50:27.318Z,28.10
2018-09-19T16:52:55.883Z,28.00
2018-09-19T16:55:24.713Z,27.90
2018-09-19T16:57:52.950Z,27.80
2018-09-19T17:00:21.219Z,27.70
2018-09-19T17:02:49.597Z,27.60
2018-09-19T17:05:17.864Z,27.50
2018-09-19T17:07:46.400Z,27.40
2018-09-19T17:10:15.470Z,27.40
2018-09-19T17:12:43.726Z,27.30
2018-09-19T17:15:12.154Z,27.20
2018-09-19T17:17:42.236Z,27.20
2018-09-19T17:20:10.701Z,27.10
2018-09-19T17:22:38.937Z,27.00
2018-09-19T17:25:07.162Z,26.90
2018-09-19T17:27:35.509Z,26.80
2018-09-19T17:30:04.061Z,26.70
2018-09-19T17:32:32.313Z,26.60
2018-09-19T17:35:00.602Z,26.50
2018-09-19T17:37:28.827Z,26.40
2018-09-19T17:39:57.078Z,26.30
2018-09-19T17:42:25.377Z,26.20
2018-09-19T17:44:53.602Z,26.10
2018-09-19T17:47:21.826Z,26.00
2018-09-19T17:49:50.192Z,26.00
2018-09-19T17:52:18.300Z,25.90
2018-09-19T17:54:46.501Z,25.80
2018-09-19T17:57:14.732Z,25.60
2018-09-19T17:59:43.273Z,25.30
2018-09-19T18:02:11.483Z,25.10
2018-09-19T18:04:39.789Z,24.90
2018-09-19T18:07:08.188Z,24.80
2018-09-19T18:12:04.398Z,24.60
2018-09-19T18:14:32.614Z,24.50
2018-09-19T18:17:00.834Z,24.50
2018-09-19T18:19:29.070Z,24.40
2018-09-19T18:21:57.700Z,24.30
2018-09-19T18:24:26.160Z,24.30
2018-09-19T18:26:54.651Z,24.20
2018-09-19T18:29:22.876Z,24.20
2018-09-19T18:31:51.097Z,24.10
2018-09-19T18:34:19.312Z,24.00
2018-09-19T18:36:47.572Z,24.00
2018-09-19T18:39:15.793Z,23.90
2018-09-19T18:41:44.484Z,23.80
2018-09-19T18:44:12.653Z,23.70
2018-09-19T18:46:41.259Z,23.70
2018-09-19T18:49:09.556Z,23.60
2018-09-19T18:51:37.761Z,23.60
2018-09-19T18:54:05.985Z,23.60
2018-09-19T18:56:34.349Z,23.50
2018-09-19T18:59:03.894Z,23.50
2018-09-19T19:01:32.148Z,23.50
2018-09-19T19:04:00.341Z,23.40
2018-09-19T19:06:28.869Z,23.50
2018-09-19T19:08:57.051Z,23.40
2018-09-19T19:11:25.292Z,23.40
2018-09-19T19:13:53.561Z,23.40
2018-09-19T19:16:21.848Z,23.30
2018-09-19T19:18:50.140Z,23.20
2018-09-19T19:21:18.356Z,23.20
2018-09-19T19:23:46.613Z,23.10
2018-09-19T19:26:14.862Z,23.10
2018-09-19T19:28:43.239Z,23.10
2018-09-19T19:31:11.454Z,23.10
2018-09-19T19:33:39.673Z,23.00
2018-09-19T19:36:08.183Z,23.00
2018-09-19T19:38:36.397Z,23.00
2018-09-19T19:41:04.644Z,23.00
2018-09-19T19:43:32.912Z,22.90
2018-09-19T19:46:01.144Z,22.90
2018-09-19T19:48:29.392Z,22.80
2018-09-19T19:50:57.668Z,22.80
2018-09-19T19:53:25.948Z,22.70
2018-09-19T19:55:54.207Z,22.70
2018-09-19T19:58:22.425Z,22.60
2018-09-19T20:00:50.614Z,22.60
2018-09-19T20:03:18.841Z,22.60
2018-09-19T20:05:47.160Z,22.40
2018-09-19T20:08:15.357Z,22.40
2018-09-19T20:10:43.693Z,22.40
2018-09-19T20:13:11.899Z,22.30
2018-09-19T20:15:40.094Z,22.20
2018-09-19T20:18:08.329Z,22.20
2018-09-19T20:20:36.531Z,22.10
2018-09-19T20:23:04.759Z,22.00
2018-09-19T20:25:32.991Z,21.90
2018-09-19T20:28:01.198Z,21.80
2018-09-19T20:32:57.357Z,21.30
2018-09-19T20:35:25.562Z,21.30
2018-09-19T20:37:53.752Z,21.30
2018-09-19T20:40:21.920Z,21.30
2018-09-19T20:42:50.171Z,21.30
2018-09-19T20:45:18.407Z,21.30
2018-09-19T20:47:46.665Z,21.20
2018-09-19T20:50:14.877Z,21.10
2018-09-19T20:52:43.097Z,21.10
2018-09-19T20:55:11.287Z,21.20
2018-09-19T20:57:39.528Z,21.20
2018-09-19T21:00:07.797Z,21.00
2018-09-19T21:02:36.007Z,20.90
2018-09-19T21:05:04.289Z,20.60
2018-09-19T21:07:32.467Z,20.50
2018-09-19T21:10:00.657Z,20.30
2018-09-19T21:12:28.879Z,20.20
2018-09-19T21:14:57.049Z,20.20
2018-09-19T21:19:53.232Z,19.90
2018-09-19T21:22:21.619Z,19.90
2018-09-19T21:24:49.651Z,20.00
2018-09-19T21:27:17.855Z,19.90
2018-09-19T21:29:46.051Z,19.90
2018-09-19T21:32:14.313Z,19.90
2018-09-19T21:34:42.643Z,19.90
2018-09-19T21:37:10.851Z,20.00
2018-09-19T21:39:39.054Z,20.10
2018-09-19T21:42:07.292Z,20.10
2018-09-19T21:44:35.508Z,20.20
2018-09-19T21:47:03.725Z,20.20
2018-09-19T21:49:31.939Z,20.30
2018-09-19T21:52:00.161Z,20.30
2018-09-19T21:54:28.389Z,20.40
2018-09-19T21:56:56.904Z,20.50
2018-09-19T21:59:25.148Z,20.50
2018-09-19T22:01:59.565Z,20.60
2018-09-19T22:04:28.104Z,20.60
2018-09-19T22:06:56.347Z,20.70
2018-09-19T22:09:24.574Z,20.70
2018-09-19T22:11:52.773Z,20.80
2018-09-19T22:14:20.972Z,20.70
2018-09-19T22:16:49.233Z,20.80
2018-09-19T22:19:17.512Z,20.70
2018-09-19T22:21:45.726Z,20.80
2018-09-19T22:24:13.916Z,20.90
2018-09-19T22:26:42.177Z,20.90
2018-09-19T22:29:10.415Z,20.90
2018-09-19T22:31:38.649Z,20.90
2018-09-19T22:34:06.857Z,20.80
2018-09-19T22:36:35.073Z,20.80
2018-09-19T22:39:03.758Z,20.80
2018-09-19T22:41:31.960Z,20.70
2018-09-19T22:44:00.217Z,20.70
2018-09-19T22:46:28.426Z,20.60
2018-09-19T22:48:56.636Z,20.60
2018-09-19T22:51:24.817Z,20.60
2018-09-19T22:53:53.061Z,20.60
2018-09-19T22:56:21.296Z,20.60
2018-09-19T22:58:49.603Z,20.60
2018-09-19T23:01:17.851Z,20.50
2018-09-19T23:03:46.059Z,20.50
2018-09-19T23:06:14.280Z,20.50
2018-09-19T23:08:42.473Z,20.50
2018-09-19T23:11:10.683Z,20.50
2018-09-19T23:13:38.922Z,20.50
2018-09-19T23:16:07.114Z,20.50
2018-09-19T23:18:35.290Z,20.50
2018-09-19T23:21:03.476Z,20.50
2018-09-19T23:23:31.701Z,20.40
2018-09-19T23:25:59.916Z,20.40
2018-09-19T23:28:28.154Z,20.40
2018-09-19T23:30:56.389Z,20.30
2018-09-19T23:33:24.591Z,20.30
2018-09-19T23:35:52.837Z,20.20
2018-09-19T23:38:21.074Z,20.10
2018-09-19T23:40:49.269Z,20.10
2018-09-19T23:43:17.502Z,20.10
2018-09-19T23:45:45.730Z,20.00
2018-09-19T23:48:13.953Z,20.00
2018-09-19T23:50:42.346Z,20.00
2018-09-19T23:53:10.561Z,20.00
2018-09-19T23:55:38.763Z,20.00
2018-09-19T23:58:07.000Z,19.90
